Time;durP1;ratioP1;P1;durP2;ratioP2;P2;SDS_P1;SDS_P2;PMS_P1;PMS_P2;Temp;Humidity;BMP_temperature;BMP_pressure;BME280_temperature;BME280_humidity;BME280_pressure;Samples;Min_cycle;Max_cycle;Signal;HPM_P1;HPM_P2
2023/09/15 00:00:29;;;;;;;17.02;9.52;;;;;;;22.66;55.89;95427.81;5071959;28;20071;-77
2023/09/15 00:02:55;;;;;;;15.68;9.85;;;;;;;22.19;55.37;95337.72;5070500;28;20045;-77
2023/09/15 00:05:21;;;;;;;14.07;9.82;;;;;;;22.53;55.86;95393.88;5053122;28;20419;-80
2023/09/15 00:07:47;;;;;;;19.27;9.90;;;;;;;22.45;55.58;95394.00;5047693;28;20032;-80
2023/09/15 00:10:14;;;;;;;13.07;9.00;;;;;;;22.60;55.69;95428.41;5064025;28;20054;-80
2023/09/15 00:12:44;;;;;;;19.88;10.07;;;;;;;22.33;55.50;95401.03;5063705;28;20032;-80
2023/09/15 00:15:11;;;;;;;14.18;9.45;;;;;;;22.22;56.07;95393.75;5080769;28;20365;-79
2023/09/15 00:17:38;;;;;;;15.35;9.68;;;;;;;22.15;56.25;95407.03;5062101;28;20024;-80
2023/09/15 00:20:14;;;;;;;21.17;10.77;;;;;;;22.24;56.39;95429.31;5080232;28;20029;-80
2023/09/15 00:22:41;;;;;;;15.68;9.52;;;;;;;21.88;56.89;95414.72;5062269;28;20039;-80
2023/09/15 00:25:08;;;;;;;15.38;9.48;;;;;;;21.79;57.41;95418.66;5080318;28;20115;-80
2023/09/15 00:27:33;;;;;;;18.58;10.50;;;;;;;21.98;57.66;95437.00;5062421;28;20036;-80
2023/09/15 00:29:58;;;;;;;19.58;10.55;;;;;;;21.75;57.65;95413.13;5079943;28;20037;-80
2023/09/15 00:32:25;;;;;;;17.85;10.55;;;;;;;21.61;57.84;95398.41;5060765;28;20098;-80
2023/09/15 00:34:51;;;;;;;18.05;10.02;;;;;;;21.65;58.03;95427.09;5059814;28;20028;-80
2023/09/15 00:37:16;;;;;;;16.65;9.85;;;;;;;21.52;58.39;95436.28;5058419;28;20032;-80
2023/09/15 00:39:42;;;;;;;20.40;10.55;;;;;;;21.52;58.54;95420.09;5059629;28;20031;-80
2023/09/15 00:42:08;;;;;;;16.58;10.38;;;;;;;21.30;58.53;95394.34;5044578;28;20071;-80
2023/09/15 00:44:34;;;;;;;20.85;10.35;;;;;;;21.49;58.72;95418.88;5058198;28;20093;-80
2023/09/15 00:46:59;;;;;;;16.02;10.75;;;;;;;21.34;58.86;95421.44;5040702;28;20028;-80
2023/09/15 00:49:25;;;;;;;13.18;9.70;;;;;;;21.08;58.38;95363.16;5042192;28;20132;-80
2023/09/15 00:51:50;;;;;;;16.67;10.70;;;;;;;21.60;58.24;95434.59;5050896;28;20040;-80
2023/09/15 00:54:16;;;;;;;18.75;10.88;;;;;;;21.45;58.52;95409.88;5059337;28;20036;-80
2023/09/15 00:56:42;;;;;;;21.02;11.45;;;;;;;21.32;58.77;95408.28;5077930;28;20037;-80
2023/09/15 00:59:10;;;;;;;20.02;10.43;;;;;;;21.58;58.90;95442.28;5061900;28;20024;-80
2023/09/15 01:01:36;;;;;;;19.60;11.20;;;;;;;21.64;58.20;95441.72;5061387;28;20029;-80
2023/09/15 01:04:02;;;;;;;21.05;10.32;;;;;;;21.46;58.46;95411.44;5048185;28;20023;-80
2023/09/15 01:06:29;;;;;;;18.42;10.80;;;;;;;21.50;58.32;95422.38;5058077;28;20036;-79
2023/09/15 01:08:55;;;;;;;18.65;10.57;;;;;;;21.32;58.49;95416.38;5040281;28;20009;-80
2023/09/15 01:11:21;;;;;;;17.90;11.35;;;;;;;21.27;58.44;95402.34;5057607;28;20044;-80
2023/09/15 01:13:49;;;;;;;15.82;10.20;;;;;;;21.45;58.60;95446.84;5040833;28;20029;-80
2023/09/15 01:16:46;;;;;;;16.20;10.30;;;;;;;21.55;58.54;95458.00;5035438;28;20526;-77
2023/09/15 01:19:53;;;;;;;19.63;11.50;;;;;;;21.58;58.35;95464.66;5051686;28;20025;-77
2023/09/15 01:22:52;;;;;;;16.35;10.55;;;;;;;21.64;58.20;95462.53;5013584;28;20164;-77
2023/09/15 01:25:39;;;;;;;15.18;10.23;;;;;;;21.53;58.63;95462.16;5013632;28;20060;-77
2023/09/15 01:28:11;;;;;;;18.95;10.75;;;;;;;21.69;58.34;95460.38;5032036;28;20040;-77
2023/09/15 01:30:38;;;;;;;16.25;10.73;;;;;;;21.44;58.20;95429.88;5031515;28;20040;-77
2023/09/15 01:33:05;;;;;;;14.98;11.52;;;;;;;21.68;58.18;95453.41;5031350;28;20127;-77
2023/09/15 01:35:32;;;;;;;19.88;11.40;;;;;;;21.71;58.09;95457.34;5013763;28;20033;-77
2023/09/15 01:37:59;;;;;;;19.20;10.80;;;;;;;21.68;57.89;95458.00;5029971;28;20120;-78
2023/09/15 01:40:25;;;;;;;19.90;11.27;;;;;;;21.50;58.05;95433.16;5013523;28;20033;-77
2023/09/15 01:42:54;;;;;;;16.77;11.00;;;;;;;21.66;58.00;95452.97;5031399;28;20053;-77
2023/09/15 01:45:19;;;;;;;15.60;10.73;;;;;;;21.40;57.94;95420.91;5015374;28;20033;-78
2023/09/15 01:47:46;;;;;;;18.70;10.98;;;;;;;21.64;57.96;95455.22;5034703;28;20099;-78
2023/09/15 01:50:13;;;;;;;22.50;10.40;;;;;;;21.60;57.84;95443.50;5033600;28;20103;-77
2023/09/15 01:52:39;;;;;;;18.95;10.90;;;;;;;21.40;58.06;95417.41;5000865;28;20419;-77
2023/09/15 01:55:06;;;;;;;15.50;11.43;;;;;;;21.56;57.98;95437.22;5017209;28;20025;-77
2023/09/15 01:57:32;;;;;;;18.05;11.10;;;;;;;21.30;58.02;95402.44;5016991;28;20411;-77
2023/09/15 02:00:00;;;;;;;16.75;10.90;;;;;;;21.51;57.89;95438.19;5035004;28;20033;-77
2023/09/15 02:02:26;;;;;;;15.68;10.65;;;;;;;21.56;57.97;95456.09;5034547;28;20064;-77
2023/09/15 02:04:51;;;;;;;17.38;11.02;;;;;;;21.79;57.79;95478.03;5034416;28;20411;-78
2023/09/15 02:07:17;;;;;;;14.88;11.93;;;;;;;21.49;57.94;95451.25;5034302;28;20061;-77
2023/09/15 02:09:42;;;;;;;19.13;11.98;;;;;;;21.60;58.15;95483.19;5034334;28;20522;-77
2023/09/15 02:12:08;;;;;;;16.08;10.40;;;;;;;21.33;58.67;95457.66;5016844;28;20393;-77
2023/09/15 02:14:34;;;;;;;18.02;11.30;;;;;;;21.37;58.67;95466.63;5016630;28;20034;-77
2023/09/15 02:17:00;;;;;;;17.10;11.05;;;;;;;21.48;58.60;95478.56;5034854;28;20040;-78
2023/09/15 02:19:26;;;;;;;19.00;11.18;;;;;;;21.43;58.52;95492.28;5016043;28;20021;-77
2023/09/15 02:21:51;;;;;;;25.38;12.35;;;;;;;21.39;58.81;95484.06;5034024;28;20037;-77
2023/09/15 02:24:17;;;;;;;23.95;11.98;;;;;;;21.26;58.79;95460.91;5034647;28;20463;-77
2023/09/15 02:26:44;;;;;;;20.08;12.35;;;;;;;21.30;59.24;95482.56;5041934;28;20045;-80
2023/09/15 02:29:09;;;;;;;19.58;11.50;;;;;;;21.07;59.42;95463.28;5041661;28;20029;-80
2023/09/15 02:31:35;;;;;;;19.42;11.15;;;;;;;20.96;60.10;95476.41;5021998;28;20511;-79
2023/09/15 02:34:00;;;;;;;18.60;11.65;;;;;;;20.67;60.16;95444.16;5029643;28;20028;-80
2023/09/15 02:36:26;;;;;;;19.58;11.50;;;;;;;20.56;60.45;95432.22;5041264;28;20036;-80
2023/09/15 02:38:54;;;;;;;25.02;12.25;;;;;;;20.85;60.63;95485.22;5042123;28;20025;-80
2023/09/15 02:41:20;;;;;;;19.08;12.50;;;;;;;20.79;60.44;95469.25;5042211;28;20037;-80
2023/09/15 02:43:46;;;;;;;24.42;11.73;;;;;;;20.61;61.14;95480.50;5066021;28;20072;-80
2023/09/15 02:46:12;;;;;;;21.23;12.35;;;;;;;19.99;61.05;95374.31;5062419;28;20036;-80
2023/09/15 02:48:37;;;;;;;15.07;11.80;;;;;;;20.59;61.37;95488.94;5062223;28;20039;-80
2023/09/15 02:51:04;;;;;;;20.98;11.88;;;;;;;20.37;61.42;95459.59;5063695;28;20352;-80
2023/09/15 02:53:30;;;;;;;17.77;11.98;;;;;;;20.65;61.32;95486.81;5062066;28;20082;-80
2023/09/15 02:56:04;;;;;;;15.98;11.80;;;;;;;20.78;61.10;95491.94;5077852;28;20040;-80
2023/09/15 02:58:31;;;;;;;27.50;12.55;;;;;;;20.21;62.21;95475.53;5057287;28;20033;-80
2023/09/15 03:00:57;;;;;;;18.90;11.82;;;;;;;20.14;63.40;95504.09;5057607;28;20039;-80
2023/09/15 03:03:25;;;;;;;15.80;12.07;;;;;;;20.07;63.59;95493.81;5060062;28;20029;-80
2023/09/15 03:06:02;;;;;;;18.13;11.88;;;;;;;19.82;63.81;95481.31;5075479;28;20033;-80
2023/09/15 03:08:29;;;;;;;24.08;12.70;;;;;;;19.60;64.69;95463.53;5075915;28;20131;-80
2023/09/15 03:10:54;;;;;;;20.25;11.98;;;;;;;19.47;65.10;95475.28;5058909;28;20033;-80
2023/09/15 03:13:20;;;;;;;26.75;13.70;;;;;;;19.55;65.36;95494.06;5076348;28;20457;-80
2023/09/15 03:15:45;;;;;;;26.67;12.18;;;;;;;19.48;65.52;95480.34;5076812;28;20024;-80
2023/09/15 03:18:11;;;;;;;20.02;12.20;;;;;;;18.20;64.72;95259.22;5078636;28;20516;-80
2023/09/15 03:20:37;;;;;;;18.45;12.52;;;;;;;19.62;64.77;95458.59;5061396;28;20037;-80
2023/09/15 03:23:02;;;;;;;18.67;12.55;;;;;;;19.99;64.16;95502.75;5080043;28;20029;-80
2023/09/15 03:25:28;;;;;;;18.50;12.60;;;;;;;19.75;64.57;95484.50;5075651;28;20032;-80
2023/09/15 03:27:53;;;;;;;24.90;12.85;;;;;;;19.76;64.64;95496.84;5061712;28;20028;-80
2023/09/15 03:30:19;;;;;;;18.50;12.38;;;;;;;19.41;64.75;95457.72;5060986;28;20041;-80
2023/09/15 03:32:44;;;;;;;19.60;12.30;;;;;;;19.66;64.33;95481.06;5061775;28;20026;-80
2023/09/15 03:35:10;;;;;;;22.20;11.98;;;;;;;19.69;64.66;95512.69;5077098;28;20037;-80
2023/09/15 03:37:36;;;;;;;21.08;12.45;;;;;;;19.81;64.46;95520.88;5078410;28;20074;-80
2023/09/15 03:40:04;;;;;;;18.10;11.82;;;;;;;19.87;64.13;95527.66;5060518;28;20056;-80
2023/09/15 03:42:30;;;;;;;21.20;11.02;;;;;;;19.42;64.41;95470.84;5060896;28;20048;-80
2023/09/15 03:44:55;;;;;;;18.23;11.25;;;;;;;19.92;63.74;95524.00;5061673;28;20421;-80
2023/09/15 03:47:21;;;;;;;19.05;11.43;;;;;;;19.68;63.66;95492.31;5061688;28;20066;-80
2023/09/15 03:49:46;;;;;;;16.77;11.20;;;;;;;19.77;63.33;95505.69;5061674;28;20127;-81
2023/09/15 03:52:12;;;;;;;27.80;11.23;;;;;;;19.87;63.41;95514.22;5080859;28;20103;-80
2023/09/15 03:54:38;;;;;;;27.50;11.15;;;;;;;19.99;63.56;95529.66;5080288;28;20036;-80
2023/09/15 03:57:05;;;;;;;16.67;11.07;;;;;;;19.91;63.46;95517.81;5064100;28;20029;-80
2023/09/15 03:59:30;;;;;;;17.60;11.10;;;;;;;19.87;62.97;95516.09;5079798;28;20062;-80
2023/09/15 04:01:57;;;;;;;21.98;12.02;;;;;;;19.84;63.22;95512.16;5063867;28;20024;-80
2023/09/15 04:04:22;;;;;;;22.23;12.07;;;;;;;19.70;62.75;95484.69;5081745;28;20029;-80
2023/09/15 04:06:48;;;;;;;19.23;9.93;;;;;;;20.16;62.17;95526.88;5062872;28;20028;-80
2023/09/15 04:09:13;;;;;;;20.80;11.55;;;;;;;19.98;62.46;95539.66;5080684;28;20048;-80
2023/09/15 04:11:39;;;;;;;23.55;11.23;;;;;;;19.77;62.93;95513.78;5054399;28;20047;-80
2023/09/15 04:14:05;;;;;;;17.13;10.73;;;;;;;19.63;63.27;95530.13;5060225;28;20124;-80
2023/09/15 04:16:31;;;;;;;13.57;10.35;;;;;;;19.64;63.96;95545.97;5060506;28;20025;-80
2023/09/15 04:18:56;;;;;;;20.48;9.90;;;;;;;19.43;63.84;95517.34;5080952;28;20032;-80
2023/09/15 04:21:22;;;;;;;15.80;10.18;;;;;;;19.55;63.85;95552.47;5047811;28;20056;-80
2023/09/15 04:23:47;;;;;;;21.83;10.32;;;;;;;19.19;64.03;95510.59;5056854;28;20384;-80
2023/09/15 04:26:13;;;;;;;20.02;10.45;;;;;;;19.33;64.01;95531.13;5052085;28;20086;-80
2023/09/15 04:28:38;;;;;;;22.85;10.40;;;;;;;19.41;64.18;95552.63;5080824;28;20032;-80
2023/09/15 04:31:04;;;;;;;14.63;10.10;;;;;;;19.43;63.72;95549.63;5060915;28;20043;-80
2023/09/15 04:33:29;;;;;;;21.25;10.90;;;;;;;19.23;63.88;95516.91;5082894;28;20032;-80
2023/09/15 04:35:55;;;;;;;19.50;11.18;;;;;;;19.51;64.08;95555.03;5052812;28;20028;-80
2023/09/15 04:38:20;;;;;;;21.35;11.38;;;;;;;19.68;63.46;95564.94;5062828;28;20037;-80
2023/09/15 04:40:46;;;;;;;17.70;9.95;;;;;;;19.61;63.68;95568.13;5041215;28;20123;-80
2023/09/15 04:43:12;;;;;;;14.57;10.70;;;;;;;19.62;63.82;95579.66;5059636;28;20099;-80
2023/09/15 04:45:39;;;;;;;18.20;10.13;;;;;;;19.58;63.95;95573.34;5037539;28;20041;-77
2023/09/15 04:48:04;;;;;;;19.17;10.07;;;;;;;19.59;63.84;95564.97;5067289;28;20074;-77
2023/09/15 04:50:30;;;;;;;17.83;11.23;;;;;;;19.39;63.85;95517.19;5038024;28;20028;-77
2023/09/15 04:52:55;;;;;;;18.80;10.50;;;;;;;19.81;63.50;95572.03;5037786;28;20514;-77
2023/09/15 04:55:22;;;;;;;22.25;10.93;;;;;;;19.79;63.64;95576.13;5043032;28;20536;-77
2023/09/15 04:57:47;;;;;;;19.85;10.07;;;;;;;19.59;63.54;95559.59;5056282;28;20025;-77
2023/09/15 05:00:21;;;;;;;15.43;9.93;;;;;;;19.58;64.25;95579.53;5056249;28;20033;-77
2023/09/15 05:02:46;;;;;;;15.07;10.02;;;;;;;19.37;64.55;95550.91;5037857;28;20249;-77
2023/09/15 05:05:12;;;;;;;18.52;10.25;;;;;;;19.47;64.18;95554.06;5040044;28;20462;-77
2023/09/15 05:07:37;;;;;;;22.65;10.55;;;;;;;19.64;64.19;95575.56;5037453;28;20148;-77
2023/09/15 05:10:03;;;;;;;16.60;10.85;;;;;;;19.68;63.92;95583.78;5040368;28;20035;-77
2023/09/15 05:12:29;;;;;;;16.15;10.40;;;;;;;19.58;64.33;95578.75;5048415;28;20046;-77
2023/09/15 05:14:54;;;;;;;22.50;9.55;;;;;;;19.52;64.40;95591.56;5036859;28;20124;-78
2023/09/15 05:17:19;;;;;;;23.25;10.82;;;;;;;19.53;64.62;95590.44;5060011;28;20043;-77
2023/09/15 05:19:47;;;;;;;24.05;12.05;;;;;;;19.28;64.48;95529.41;5056051;28;20494;-78
2023/09/15 05:22:12;;;;;;;15.32;10.63;;;;;;;19.61;64.22;95581.56;5032521;28;20514;-78
2023/09/15 05:24:38;;;;;;;18.88;10.15;;;;;;;19.42;64.87;95570.34;5036372;28;20223;-78
2023/09/15 05:27:03;;;;;;;19.48;10.80;;;;;;;19.37;65.32;95575.13;5031295;28;20040;-78
2023/09/15 05:29:29;;;;;;;16.33;11.25;;;;;;;19.44;65.40;95580.81;5031629;28;20060;-78
2023/09/15 05:31:54;;;;;;;18.90;11.07;;;;;;;19.22;65.43;95561.03;5030094;28;20507;-77
2023/09/15 05:34:20;;;;;;;14.90;10.00;;;;;;;19.39;65.10;95575.56;5028780;28;20090;-79
2023/09/15 05:36:46;;;;;;;16.38;11.38;;;;;;;19.52;65.45;95593.47;5016227;28;20159;-78
2023/09/15 05:39:11;;;;;;;27.10;12.15;;;;;;;19.43;65.49;95571.94;5033761;28;20033;-78
2023/09/15 05:41:36;;;;;;;21.70;11.38;;;;;;;19.50;65.34;95588.41;5015442;28;20110;-78
2023/09/15 05:44:02;;;;;;;27.95;11.85;;;;;;;19.54;65.16;95583.97;5018991;28;20090;-79
2023/09/15 05:46:27;;;;;;;20.08;12.25;;;;;;;19.57;65.30;95579.84;5035211;28;20033;-79
2023/09/15 05:48:53;;;;;;;19.42;11.73;;;;;;;19.64;64.90;95582.84;5025714;28;20037;-78
2023/09/15 05:51:18;;;;;;;21.63;12.32;;;;;;;19.71;65.23;95598.47;5028650;28;20055;-78
2023/09/15 05:53:44;;;;;;;21.42;12.95;;;;;;;19.62;65.28;95579.66;5023962;28;20033;-77
2023/09/15 05:56:10;;;;;;;24.42;12.27;;;;;;;19.89;65.04;95605.41;5042296;28;20036;-78
2023/09/15 05:58:35;;;;;;;16.00;11.52;;;;;;;19.82;64.99;95600.53;5040193;28;20033;-78
2023/09/15 06:01:01;;;;;;;16.13;10.60;;;;;;;19.74;65.56;95585.19;5020988;28;20033;-78
2023/09/15 06:03:26;;;;;;;20.83;12.07;;;;;;;19.75;65.49;95580.59;5016074;28;20029;-77
2023/09/15 06:05:52;;;;;;;26.98;13.25;;;;;;;19.59;65.70;95569.56;5026218;28;20040;-78
2023/09/15 06:08:19;;;;;;;21.38;11.93;;;;;;;19.60;65.81;95577.31;5030625;28;20041;-78
2023/09/15 06:10:45;;;;;;;21.20;12.23;;;;;;;19.35;66.53;95548.53;5013974;28;20515;-78
2023/09/15 06:13:10;;;;;;;21.38;11.63;;;;;;;19.72;66.48;95600.84;5040445;28;20059;-77
2023/09/15 06:15:36;;;;;;;22.25;12.70;;;;;;;19.82;66.17;95595.13;5024894;28;20155;-77
2023/09/15 06:18:02;;;;;;;28.67;12.45;;;;;;;19.42;66.31;95524.63;5012505;28;20191;-77
2023/09/15 06:20:30;;;;;;;19.00;11.70;;;;;;;19.98;65.65;95611.56;5021678;28;20360;-78
2023/09/15 06:22:56;;;;;;;23.35;12.93;;;;;;;19.86;65.87;95590.69;5043830;28;20515;-77
2023/09/15 06:25:21;;;;;;;21.25;12.23;;;;;;;20.00;65.94;95612.78;5039849;28;20029;-78
2023/09/15 06:27:47;;;;;;;17.98;13.02;;;;;;;19.89;65.99;95603.50;5040651;28;20081;-77
2023/09/15 06:30:13;;;;;;;21.50;12.43;;;;;;;20.00;65.77;95610.09;5034597;28;20496;-77
2023/09/15 06:32:38;;;;;;;18.75;12.18;;;;;;;19.94;65.55;95597.94;5039325;28;20037;-77
2023/09/15 06:35:05;;;;;;;19.42;11.50;;;;;;;20.00;65.65;95599.34;5048034;28;20029;-77
2023/09/15 06:37:31;;;;;;;21.98;12.15;;;;;;;19.73;65.76;95547.84;5027447;28;20534;-78
2023/09/15 06:39:56;;;;;;;18.55;11.40;;;;;;;19.83;65.07;95548.28;5024172;28;20044;-77
2023/09/15 06:42:22;;;;;;;20.10;12.68;;;;;;;19.75;65.50;95534.84;5033780;28;20048;-77
2023/09/15 06:44:47;;;;;;;20.60;12.05;;;;;;;20.07;65.71;95581.88;5025634;28;20120;-77
2023/09/15 06:47:13;;;;;;;20.30;11.80;;;;;;;20.24;65.43;95596.06;5038626;28;20024;-78
2023/09/15 06:49:38;;;;;;;16.55;11.77;;;;;;;20.32;65.11;95589.84;5033900;28;20083;-78
2023/09/15 06:52:05;;;;;;;25.13;12.38;;;;;;;20.39;64.41;95598.25;5010015;28;20029;-78
2023/09/15 06:54:30;;;;;;;19.63;11.73;;;;;;;20.41;64.02;95573.66;5047048;28;20090;-79
2023/09/15 06:56:56;;;;;;;21.33;11.70;;;;;;;20.65;63.54;95608.88;5018964;28;20025;-78
2023/09/15 06:59:21;;;;;;;18.50;11.25;;;;;;;20.57;63.11;95590.06;5023266;28;20033;-78
2023/09/15 07:01:47;;;;;;;21.17;12.88;;;;;;;20.68;63.38;95589.34;5038223;28;20438;-78
2023/09/15 07:04:13;;;;;;;19.88;12.05;;;;;;;20.83;62.80;95585.28;5017249;28;20394;-78
2023/09/15 07:06:39;;;;;;;15.70;11.55;;;;;;;20.79;62.83;95560.91;5038891;28;20044;-80
2023/09/15 07:09:05;;;;;;;23.88;11.98;;;;;;;20.66;62.17;95537.69;5048070;28;20066;-80
2023/09/15 07:11:30;;;;;;;20.27;10.73;;;;;;;20.89;61.30;95569.72;5032897;28;20145;-80
2023/09/15 07:13:56;;;;;;;25.30;10.55;;;;;;;20.85;61.51;95566.88;5036478;28;20031;-80
2023/09/15 07:16:21;;;;;;;19.58;11.63;;;;;;;21.09;61.19;95580.47;5058138;28;20501;-79
2023/09/15 07:18:47;;;;;;;19.38;11.23;;;;;;;21.21;60.15;95597.88;5032708;28;20069;-79
2023/09/15 07:21:12;;;;;;;15.82;10.20;;;;;;;21.13;60.24;95604.91;5036130;28;20483;-79
2023/09/15 07:23:38;;;;;;;21.55;10.90;;;;;;;20.95;60.31;95569.19;5031531;28;20065;-79
2023/09/15 07:26:03;;;;;;;16.45;10.45;;;;;;;20.91;60.60;95545.88;5033682;28;20344;-79
2023/09/15 07:28:28;;;;;;;27.17;10.65;;;;;;;21.08;59.68;95556.53;5024677;23;20063;-82
2023/09/15 07:31:04;;;;;;;21.30;10.07;;;;;;;21.12;59.11;95542.06;5002001;28;20416;-81
2023/09/15 07:33:30;;;;;;;25.35;11.85;;;;;;;21.44;59.47;95580.97;4999065;28;20250;-81
2023/09/15 07:36:00;;;;;;;21.17;11.10;;;;;;;21.45;58.99;95574.47;5018631;28;20558;-81
2023/09/15 07:38:25;;;;;;;19.55;11.43;;;;;;;21.60;59.19;95593.84;5021126;28;20045;-81
2023/09/15 07:40:51;;;;;;;15.98;10.35;;;;;;;21.44;58.44;95550.50;5008676;28;20045;-82
2023/09/15 07:43:16;;;;;;;19.35;11.02;;;;;;;21.81;58.13;95595.38;5016367;28;20179;-81
2023/09/15 07:45:43;;;;;;;17.88;9.90;;;;;;;21.91;58.19;95599.53;4996846;28;20029;-82
2023/09/15 07:48:08;;;;;;;16.20;10.70;;;;;;;21.81;57.31;95576.47;5016391;28;20125;-82
2023/09/15 07:50:34;;;;;;;18.23;10.35;;;;;;;21.92;57.44;95588.41;4995579;28;20566;-81
2023/09/15 07:53:01;;;;;;;23.42;10.98;;;;;;;21.80;57.42;95572.19;5004011;28;20051;-82
2023/09/15 07:55:26;;;;;;;17.48;10.05;;;;;;;22.01;57.75;95582.16;5000696;28;20041;-82
2023/09/15 07:57:51;;;;;;;23.33;11.93;;;;;;;22.11;57.21;95587.91;5002293;28;20680;-82
2023/09/15 08:00:17;;;;;;;20.58;11.32;;;;;;;22.01;56.51;95563.25;5028354;28;20057;-82
2023/09/15 08:02:43;;;;;;;15.45;9.40;;;;;;;22.06;56.48;95581.94;5024945;28;20036;-83
2023/09/15 08:05:08;;;;;;;15.82;10.07;;;;;;;22.01;56.41;95547.84;5017499;28;20060;-82
2023/09/15 08:07:34;;;;;;;21.77;9.77;;;;;;;22.25;56.18;95571.38;5026699;28;20029;-83
2023/09/15 08:10:03;;;;;;;13.65;10.50;;;;;;;22.27;55.88;95561.81;4996724;28;20204;-83
2023/09/15 08:12:29;;;;;;;20.10;9.75;;;;;;;22.45;55.36;95575.06;5004567;28;20045;-81
2023/09/15 08:14:55;;;;;;;19.33;9.88;;;;;;;22.39;55.05;95579.13;5029587;28;20120;-82
2023/09/15 08:17:21;;;;;;;16.17;9.77;;;;;;;22.47;55.04;95559.31;5014769;28;20033;-86
2023/09/15 08:19:46;;;;;;;16.48;10.30;;;;;;;22.50;55.00;95554.03;5011856;28;20037;-85
2023/09/15 08:22:13;;;;;;;16.80;10.70;;;;;;;22.67;54.68;95577.28;5008639;28;20119;-83
2023/09/15 08:24:39;;;;;;;19.38;9.57;;;;;;;22.77;53.20;95574.16;5030298;28;20029;-86
2023/09/15 08:27:04;;;;;;;14.18;8.70;;;;;;;22.85;53.71;95565.13;5012576;28;20950;-86
2023/09/15 08:29:30;;;;;;;18.80;10.00;;;;;;;22.91;54.02;95539.41;5024784;28;20265;-83
2023/09/15 08:31:55;;;;;;;21.58;10.60;;;;;;;23.18;53.58;95559.50;5021336;28;20134;-84
2023/09/15 08:34:20;;;;;;;15.25;10.18;;;;;;;22.88;53.37;95486.03;5023387;28;20064;-83
2023/09/15 08:36:46;;;;;;;17.33;9.35;;;;;;;23.28;52.60;95539.28;5022947;28;20076;-82
2023/09/15 08:39:15;;;;;;;24.40;10.45;;;;;;;23.40;52.36;95515.66;5032838;28;20740;-81
2023/09/15 08:41:52;;;;;;;23.55;9.52;;;;;;;23.82;51.61;95550.41;5042668;28;20039;-82
2023/09/15 08:44:19;;;;;;;16.75;9.85;;;;;;;23.88;51.56;95546.28;5040395;28;20036;-83
2023/09/15 08:46:45;;;;;;;20.40;10.00;;;;;;;23.54;51.63;95492.81;5018476;28;20017;-85
2023/09/15 08:49:11;;;;;;;23.63;10.30;;;;;;;23.46;51.22;95483.69;5025768;28;20187;-82
2023/09/15 08:51:38;;;;;;;16.40;10.13;;;;;;;23.88;51.21;95540.13;5029651;28;20063;-81
2023/09/15 08:54:04;;;;;;;18.25;9.95;;;;;;;23.89;50.30;95525.41;5028362;28;20024;-79
2023/09/15 08:56:30;;;;;;;16.15;9.45;;;;;;;23.89;50.04;95515.38;5030345;28;20146;-81
2023/09/15 08:58:58;;;;;;;20.65;9.77;;;;;;;23.98;50.61;95526.81;5023889;28;20072;-79
2023/09/15 09:01:24;;;;;;;14.60;9.25;;;;;;;23.93;50.56;95505.41;5023292;28;20060;-80
2023/09/15 09:03:49;;;;;;;16.85;9.27;;;;;;;23.99;50.18;95473.41;5031875;28;20108;-80
2023/09/15 09:06:16;;;;;;;19.13;10.27;;;;;;;24.35;50.20;95521.13;5049821;28;20774;-80
2023/09/15 09:08:44;;;;;;;23.10;10.50;;;;;;;24.49;50.04;95524.13;5041634;28;20259;-79
2023/09/15 09:11:11;;;;;;;19.77;10.00;;;;;;;24.39;49.65;95517.38;5028355;28;20387;-81
2023/09/15 09:13:37;;;;;;;16.92;9.23;;;;;;;24.21;49.64;95506.09;5029680;28;20126;-80
2023/09/15 09:16:05;;;;;;;16.75;9.38;;;;;;;24.23;49.60;95517.38;5050708;28;20032;-80
2023/09/15 09:18:32;;;;;;;23.63;10.82;;;;;;;24.46;49.11;95525.66;5052977;28;20033;-80
2023/09/15 09:20:57;;;;;;;15.35;9.68;;;;;;;24.37;48.38;95497.16;5041266;28;20038;-80
2023/09/15 09:23:22;;;;;;;16.83;9.82;;;;;;;24.56;48.50;95527.03;5051813;28;20698;-80
2023/09/15 09:25:48;;;;;;;18.60;9.93;;;;;;;24.54;48.49;95507.63;5054988;28;20036;-80
2023/09/15 09:28:14;;;;;;;19.48;9.45;;;;;;;24.31;48.53;95468.75;5042530;28;20085;-80
2023/09/15 09:30:40;;;;;;;13.35;8.90;;;;;;;24.69;48.41;95536.63;5012450;28;20203;-80
2023/09/15 09:33:08;;;;;;;16.95;9.18;;;;;;;24.64;48.20;95528.75;5033248;28;20061;-79
2023/09/15 09:35:34;;;;;;;20.73;10.60;;;;;;;24.79;48.09;95522.50;5022892;28;20041;-80
2023/09/15 09:38:01;;;;;;;14.93;8.98;;;;;;;24.82;47.46;95527.19;5032443;28;20300;-81
2023/09/15 09:40:26;;;;;;;15.32;9.15;;;;;;;24.30;47.07;95454.44;5019329;28;20421;-80
2023/09/15 09:42:55;;;;;;;17.00;9.68;;;;;;;24.85;47.48;95509.44;5013659;28;20092;-80
2023/09/15 09:45:28;;;;;;;15.98;9.68;;;;;;;24.90;47.99;95530.84;5018604;28;20120;-81
2023/09/15 09:48:00;;;;;;;18.50;10.50;;;;;;;24.73;47.74;95487.84;5034652;28;20041;-80
2023/09/15 09:50:26;;;;;;;14.63;10.35;;;;;;;25.09;47.58;95527.41;5016873;28;20042;-81
2023/09/15 09:52:53;;;;;;;22.63;10.38;;;;;;;25.04;47.58;95512.16;5028316;28;20036;-80
2023/09/15 09:55:19;;;;;;;19.45;11.50;;;;;;;24.95;46.97;95487.97;5027135;28;20105;-80
2023/09/15 09:57:45;;;;;;;16.85;9.85;;;;;;;25.19;46.33;95461.66;5039389;28;20484;-81
2023/09/15 10:00:17;;;;;;;13.10;9.27;;;;;;;25.88;45.07;95525.78;5049308;28;20049;-80
2023/09/15 10:02:43;;;;;;;14.45;9.00;;;;;;;26.58;43.88;95505.50;5032882;28;20025;-80
2023/09/15 10:05:09;;;;;;;18.95;8.95;;;;;;;27.04;42.29;95520.53;5034771;28;20097;-81
2023/09/15 10:07:35;;;;;;;18.65;9.27;;;;;;;27.74;41.50;95510.81;5057471;28;20776;-80
2023/09/15 10:10:03;;;;;;;18.05;9.70;;;;;;;28.01;39.97;95479.50;5059859;23;20068;-78
2023/09/15 10:12:28;;;;;;;15.65;8.50;;;;;;;28.89;38.99;95505.84;5018614;28;20400;-77
2023/09/15 10:14:55;;;;;;;12.82;7.80;;;;;;;28.87;37.27;95459.81;5018434;28;20133;-80
2023/09/15 10:17:22;;;;;;;17.00;8.13;;;;;;;29.13;36.79;95505.19;5019576;28;20064;-78
2023/09/15 10:19:48;;;;;;;19.58;8.15;;;;;;;29.36;36.25;95510.38;5019115;28;20038;-80
2023/09/15 10:22:16;;;;;;;14.48;7.72;;;;;;;29.63;36.52;95517.06;5047292;28;20025;-78
2023/09/15 10:24:56;;;;;;;11.05;7.47;;;;;;;30.10;34.52;95509.72;5031566;28;20091;-78
2023/09/15 10:27:21;;;;;;;15.60;7.57;;;;;;;29.82;34.17;95455.78;5054266;28;20098;-79
2023/09/15 10:29:47;;;;;;;16.73;7.97;;;;;;;30.39;34.52;95505.00;5056565;28;20037;-78
2023/09/15 10:32:19;;;;;;;13.52;7.57;;;;;;;30.33;34.39;95514.78;5038486;28;20033;-78
2023/09/15 10:34:47;;;;;;;14.70;7.68;;;;;;;30.26;34.58;95490.94;5056805;28;20036;-77
2023/09/15 10:37:13;;;;;;;11.05;7.65;;;;;;;30.02;35.15;95487.06;5038944;28;20047;-78
2023/09/15 10:39:41;;;;;;;11.65;7.22;;;;;;;30.47;34.47;95499.13;5056453;28;20116;-78
2023/09/15 10:42:08;;;;;;;12.30;7.88;;;;;;;30.49;34.21;95496.78;5055008;28;20037;-77
2023/09/15 10:44:33;;;;;;;16.95;8.35;;;;;;;30.47;34.38;95462.78;5038449;28;20483;-78
2023/09/15 10:46:59;;;;;;;14.25;7.38;;;;;;;30.02;34.60;95472.59;5036492;28;20032;-78
2023/09/15 10:49:25;;;;;;;15.82;7.25;;;;;;;30.14;34.69;95475.72;5033821;28;20036;-78
2023/09/15 10:51:59;;;;;;;16.25;7.75;;;;;;;30.38;34.29;95487.81;5034481;28;20032;-79
2023/09/15 10:54:34;;;;;;;13.48;8.18;;;;;;;30.20;34.88;95456.97;5046545;28;20029;-78
2023/09/15 10:57:01;;;;;;;17.42;7.68;;;;;;;30.49;34.55;95491.31;5043019;28;20048;-78
2023/09/15 10:59:27;;;;;;;13.68;9.02;;;;;;;30.46;34.26;95469.41;5045674;28;20056;-78
2023/09/15 11:01:54;;;;;;;15.38;8.90;;;;;;;30.63;34.16;95468.63;5034435;28;20066;-78
2023/09/15 11:04:22;;;;;;;15.20;8.20;;;;;;;30.73;34.02;95476.03;5053538;28;20037;-78
2023/09/15 11:06:52;;;;;;;19.45;9.43;;;;;;;30.12;34.85;95471.81;5039099;28;20529;-77
2023/09/15 11:09:19;;;;;;;15.40;8.25;;;;;;;30.04;34.34;95449.16;5038282;28;20060;-77
2023/09/15 11:11:46;;;;;;;15.77;8.85;;;;;;;30.29;33.81;95432.69;5037905;28;20138;-78
2023/09/15 11:14:17;;;;;;;12.82;8.43;;;;;;;30.61;33.58;95444.38;5056626;28;20029;-79
2023/09/15 11:16:50;;;;;;;18.23;8.52;;;;;;;30.62;33.65;95461.59;5033200;28;20033;-78